sensor_id;sensor_type;location;lat;lon;timestamp;P1;durP1;ratioP1;P2;durP2;ratioP2
55641;SDS011;41509;53.108;6.100;2023-05-13T00:01:29;13.33;;;5.57;;
55641;SDS011;41509;53.108;6.100;2023-05-13T00:03:55;7.80;;;5.47;;
55641;SDS011;41509;53.108;6.100;2023-05-13T00:06:23;9.77;;;5.30;;
55641;SDS011;41509;53.108;6.100;2023-05-13T00:08:48;8.57;;;4.67;;
55641;SDS011;41509;53.108;6.100;2023-05-13T00:11:14;7.80;;;5.47;;
55641;SDS011;41509;53.108;6.100;2023-05-13T00:13:39;7.80;;;5.47;;
55641;SDS011;41509;53.108;6.100;2023-05-13T00:16:05;8.47;;;5.40;;
55641;SDS011;41509;53.108;6.100;2023-05-13T00:18:31;11.67;;;5.10;;
55641;SDS011;41509;53.108;6.100;2023-05-13T00:20:56;8.47;;;5.37;;
55641;SDS011;41509;53.108;6.100;2023-05-13T00:23:22;8.23;;;4.90;;
55641;SDS011;41509;53.108;6.100;2023-05-13T00:25:47;9.57;;;5.10;;
55641;SDS011;41509;53.108;6.100;2023-05-13T00:28:16;7.25;;;5.38;;
55641;SDS011;41509;53.108;6.100;2023-05-13T00:30:41;6.80;;;5.00;;
55641;SDS011;41509;53.108;6.100;2023-05-13T00:33:09;7.80;;;5.70;;
55641;SDS011;41509;53.108;6.100;2023-05-13T00:35:35;9.18;;;5.03;;
55641;SDS011;41509;53.108;6.100;2023-05-13T00:38:03;9.93;;;5.43;;
55641;SDS011;41509;53.108;6.100;2023-05-13T00:40:29;8.75;;;5.40;;
55641;SDS011;41509;53.108;6.100;2023-05-13T00:42:57;11.10;;;5.60;;
55641;SDS011;41509;53.108;6.100;2023-05-13T00:45:23;8.50;;;5.20;;
55641;SDS011;41509;53.108;6.100;2023-05-13T00:47:48;10.53;;;5.37;;
55641;SDS011;41509;53.108;6.100;2023-05-13T00:50:15;10.57;;;6.10;;
55641;SDS011;41509;53.108;6.100;2023-05-13T00:52:40;10.20;;;5.93;;
55641;SDS011;41509;53.108;6.100;2023-05-13T00:55:07;9.98;;;5.32;;
55641;SDS011;41509;53.108;6.100;2023-05-13T00:57:34;11.57;;;5.72;;
55641;SDS011;41509;53.108;6.100;2023-05-13T01:00:01;10.75;;;5.68;;
55641;SDS011;41509;53.108;6.100;2023-05-13T01:02:36;9.93;;;5.40;;
55641;SDS011;41509;53.108;6.100;2023-05-13T01:07:57;11.43;;;6.22;;
55641;SDS011;41509;53.108;6.100;2023-05-13T01:13:41;9.73;;;6.07;;
55641;SDS011;41509;53.108;6.100;2023-05-13T01:20:00;9.73;;;6.05;;
55641;SDS011;41509;53.108;6.100;2023-05-13T01:22:07;8.88;;;5.72;;
55641;SDS011;41509;53.108;6.100;2023-05-13T01:24:32;10.80;;;6.38;;
55641;SDS011;41509;53.108;6.100;2023-05-13T01:27:01;9.48;;;5.97;;
55641;SDS011;41509;53.108;6.100;2023-05-13T01:29:35;13.13;;;6.30;;
55641;SDS011;41509;53.108;6.100;2023-05-13T01:32:01;11.27;;;6.60;;
55641;SDS011;41509;53.108;6.100;2023-05-13T01:34:27;9.07;;;6.47;;
55641;SDS011;41509;53.108;6.100;2023-05-13T01:36:55;11.18;;;6.30;;
55641;SDS011;41509;53.108;6.100;2023-05-13T01:41:47;9.93;;;6.05;;
55641;SDS011;41509;53.108;6.100;2023-05-13T01:44:13;12.80;;;7.00;;
55641;SDS011;41509;53.108;6.100;2023-05-13T01:46:41;11.82;;;6.90;;
55641;SDS011;41509;53.108;6.100;2023-05-13T01:49:07;11.18;;;6.60;;
55641;SDS011;41509;53.108;6.100;2023-05-13T01:54:00;9.38;;;5.60;;
55641;SDS011;41509;53.108;6.100;2023-05-13T01:56:26;7.88;;;6.10;;
55641;SDS011;41509;53.108;6.100;2023-05-13T01:58:52;16.13;;;6.40;;
55641;SDS011;41509;53.108;6.100;2023-05-13T02:01:17;14.00;;;6.70;;
55641;SDS011;41509;53.108;6.100;2023-05-13T02:03:43;9.80;;;6.43;;
55641;SDS011;41509;53.108;6.100;2023-05-13T02:06:09;13.27;;;6.35;;
55641;SDS011;41509;53.108;6.100;2023-05-13T02:08:34;11.57;;;6.10;;
55641;SDS011;41509;53.108;6.100;2023-05-13T02:11:00;9.23;;;6.47;;
55641;SDS011;41509;53.108;6.100;2023-05-13T02:13:26;9.40;;;6.13;;
55641;SDS011;41509;53.108;6.100;2023-05-13T02:15:52;11.10;;;6.23;;
55641;SDS011;41509;53.108;6.100;2023-05-13T02:18:18;10.25;;;6.35;;
55641;SDS011;41509;53.108;6.100;2023-05-13T02:20:44;10.48;;;6.35;;
55641;SDS011;41509;53.108;6.100;2023-05-13T02:23:10;10.45;;;6.43;;
55641;SDS011;41509;53.108;6.100;2023-05-13T02:25:39;10.65;;;6.03;;
55641;SDS011;41509;53.108;6.100;2023-05-13T02:28:06;12.35;;;6.32;;
55641;SDS011;41509;53.108;6.100;2023-05-13T02:30:31;12.95;;;5.80;;
55641;SDS011;41509;53.108;6.100;2023-05-13T02:32:58;10.68;;;6.25;;
55641;SDS011;41509;53.108;6.100;2023-05-13T02:35:24;10.38;;;5.68;;
55641;SDS011;41509;53.108;6.100;2023-05-13T02:37:53;10.95;;;6.18;;
55641;SDS011;41509;53.108;6.100;2023-05-13T02:40:22;7.75;;;5.55;;
55641;SDS011;41509;53.108;6.100;2023-05-13T02:42:48;10.65;;;6.40;;
55641;SDS011;41509;53.108;6.100;2023-05-13T02:45:14;9.50;;;5.57;;
55641;SDS011;41509;53.108;6.100;2023-05-13T02:47:39;10.38;;;5.50;;
55641;SDS011;41509;53.108;6.100;2023-05-13T02:50:05;11.20;;;5.73;;
55641;SDS011;41509;53.108;6.100;2023-05-13T02:52:33;8.63;;;5.95;;
55641;SDS011;41509;53.108;6.100;2023-05-13T02:55:00;9.95;;;5.63;;
55641;SDS011;41509;53.108;6.100;2023-05-13T02:57:26;10.05;;;6.70;;
55641;SDS011;41509;53.108;6.100;2023-05-13T02:59:52;11.98;;;5.80;;
55641;SDS011;41509;53.108;6.100;2023-05-13T03:02:18;12.67;;;6.33;;
55641;SDS011;41509;53.108;6.100;2023-05-13T03:04:43;9.97;;;5.97;;
55641;SDS011;41509;53.108;6.100;2023-05-13T03:07:09;12.77;;;5.57;;
55641;SDS011;41509;53.108;6.100;2023-05-13T03:09:35;11.43;;;5.60;;
55641;SDS011;41509;53.108;6.100;2023-05-13T03:12:03;12.18;;;5.82;;
55641;SDS011;41509;53.108;6.100;2023-05-13T03:14:30;9.00;;;5.63;;
55641;SDS011;41509;53.108;6.100;2023-05-13T03:16:58;9.18;;;5.53;;
55641;SDS011;41509;53.108;6.100;2023-05-13T03:19:27;14.10;;;6.25;;
55641;SDS011;41509;53.108;6.100;2023-05-13T03:21:53;9.18;;;6.53;;
55641;SDS011;41509;53.108;6.100;2023-05-13T03:24:19;11.48;;;5.45;;
55641;SDS011;41509;53.108;6.100;2023-05-13T03:26:48;10.48;;;5.53;;
55641;SDS011;41509;53.108;6.100;2023-05-13T03:29:13;9.35;;;5.65;;
55641;SDS011;41509;53.108;6.100;2023-05-13T03:31:39;10.63;;;6.03;;
55641;SDS011;41509;53.108;6.100;2023-05-13T03:34:05;10.15;;;6.15;;
55641;SDS011;41509;53.108;6.100;2023-05-13T03:36:31;10.53;;;5.27;;
55641;SDS011;41509;53.108;6.100;2023-05-13T03:38:56;13.70;;;6.30;;
55641;SDS011;41509;53.108;6.100;2023-05-13T03:41:22;9.90;;;5.63;;
55641;SDS011;41509;53.108;6.100;2023-05-13T03:43:48;12.33;;;5.77;;
55641;SDS011;41509;53.108;6.100;2023-05-13T03:46:13;17.03;;;5.17;;
55641;SDS011;41509;53.108;6.100;2023-05-13T03:48:39;8.13;;;4.73;;
55641;SDS011;41509;53.108;6.100;2023-05-13T03:51:05;9.02;;;5.50;;
55641;SDS011;41509;53.108;6.100;2023-05-13T03:53:30;12.17;;;5.53;;
55641;SDS011;41509;53.108;6.100;2023-05-13T03:55:56;12.52;;;5.10;;
55641;SDS011;41509;53.108;6.100;2023-05-13T03:58:22;10.60;;;5.40;;
55641;SDS011;41509;53.108;6.100;2023-05-13T04:00:47;9.33;;;5.27;;
55641;SDS011;41509;53.108;6.100;2023-05-13T04:03:13;7.47;;;5.53;;
55641;SDS011;41509;53.108;6.100;2023-05-13T04:05:40;11.88;;;5.22;;
55641;SDS011;41509;53.108;6.100;2023-05-13T04:08:06;9.23;;;5.70;;
55641;SDS011;41509;53.108;6.100;2023-05-13T04:10:31;13.43;;;5.50;;
55641;SDS011;41509;53.108;6.100;2023-05-13T04:12:57;8.30;;;5.10;;
55641;SDS011;41509;53.108;6.100;2023-05-13T04:15:23;13.13;;;5.53;;
55641;SDS011;41509;53.108;6.100;2023-05-13T04:17:49;9.40;;;4.83;;
55641;SDS011;41509;53.108;6.100;2023-05-13T04:20:15;7.30;;;4.93;;
55641;SDS011;41509;53.108;6.100;2023-05-13T04:22:40;9.47;;;5.43;;
55641;SDS011;41509;53.108;6.100;2023-05-13T04:25:06;9.30;;;5.63;;
55641;SDS011;41509;53.108;6.100;2023-05-13T04:27:32;10.10;;;5.80;;
55641;SDS011;41509;53.108;6.100;2023-05-13T04:29:58;12.47;;;5.40;;
55641;SDS011;41509;53.108;6.100;2023-05-13T04:32:23;8.63;;;6.03;;
55641;SDS011;41509;53.108;6.100;2023-05-13T04:34:49;9.30;;;5.38;;
55641;SDS011;41509;53.108;6.100;2023-05-13T04:37:16;9.25;;;5.13;;
55641;SDS011;41509;53.108;6.100;2023-05-13T04:39:46;11.57;;;5.45;;
55641;SDS011;41509;53.108;6.100;2023-05-13T04:42:12;9.18;;;5.22;;
55641;SDS011;41509;53.108;6.100;2023-05-13T04:44:38;9.35;;;5.30;;
55641;SDS011;41509;53.108;6.100;2023-05-13T04:47:04;8.48;;;5.40;;
55641;SDS011;41509;53.108;6.100;2023-05-13T04:49:30;9.82;;;6.38;;
55641;SDS011;41509;53.108;6.100;2023-05-13T04:51:56;8.47;;;5.33;;
55641;SDS011;41509;53.108;6.100;2023-05-13T04:54:22;9.23;;;5.32;;
55641;SDS011;41509;53.108;6.100;2023-05-13T04:56:48;11.15;;;6.05;;
55641;SDS011;41509;53.108;6.100;2023-05-13T04:59:13;10.95;;;5.30;;
55641;SDS011;41509;53.108;6.100;2023-05-13T05:01:39;10.43;;;5.95;;
55641;SDS011;41509;53.108;6.100;2023-05-13T05:04:05;9.33;;;5.13;;
55641;SDS011;41509;53.108;6.100;2023-05-13T05:06:30;9.30;;;5.40;;
55641;SDS011;41509;53.108;6.100;2023-05-13T05:08:56;12.43;;;5.80;;
55641;SDS011;41509;53.108;6.100;2023-05-13T05:11:22;9.68;;;5.28;;
55641;SDS011;41509;53.108;6.100;2023-05-13T05:13:48;8.32;;;5.68;;
55641;SDS011;41509;53.108;6.100;2023-05-13T05:16:14;10.02;;;5.78;;
55641;SDS011;41509;53.108;6.100;2023-05-13T05:18:40;9.73;;;6.00;;
55641;SDS011;41509;53.108;6.100;2023-05-13T05:21:07;10.25;;;5.72;;
55641;SDS011;41509;53.108;6.100;2023-05-13T05:23:33;7.80;;;5.00;;
55641;SDS011;41509;53.108;6.100;2023-05-13T05:25:59;10.52;;;5.32;;
55641;SDS011;41509;53.108;6.100;2023-05-13T05:28:25;8.57;;;5.35;;
55641;SDS011;41509;53.108;6.100;2023-05-13T05:30:51;12.13;;;5.22;;
55641;SDS011;41509;53.108;6.100;2023-05-13T05:33:19;9.13;;;4.90;;
55641;SDS011;41509;53.108;6.100;2023-05-13T05:35:45;9.88;;;5.47;;
55641;SDS011;41509;53.108;6.100;2023-05-13T05:38:11;9.23;;;5.43;;
55641;SDS011;41509;53.108;6.100;2023-05-13T05:40:39;6.03;;;4.70;;
55641;SDS011;41509;53.108;6.100;2023-05-13T05:43:06;8.80;;;4.57;;
55641;SDS011;41509;53.108;6.100;2023-05-13T05:45:35;9.20;;;4.97;;
55641;SDS011;41509;53.108;6.100;2023-05-13T05:48:02;7.50;;;5.07;;
55641;SDS011;41509;53.108;6.100;2023-05-13T05:50:28;10.13;;;5.40;;
55641;SDS011;41509;53.108;6.100;2023-05-13T05:52:54;8.73;;;5.00;;
55641;SDS011;41509;53.108;6.100;2023-05-13T05:55:20;11.23;;;4.93;;
55641;SDS011;41509;53.108;6.100;2023-05-13T05:57:45;11.10;;;5.22;;
55641;SDS011;41509;53.108;6.100;2023-05-13T06:00:11;8.90;;;5.18;;
55641;SDS011;41509;53.108;6.100;2023-05-13T06:02:37;9.23;;;5.55;;
55641;SDS011;41509;53.108;6.100;2023-05-13T06:05:03;7.40;;;4.53;;
55641;SDS011;41509;53.108;6.100;2023-05-13T06:07:30;7.93;;;4.53;;
55641;SDS011;41509;53.108;6.100;2023-05-13T06:09:55;7.18;;;5.10;;
55641;SDS011;41509;53.108;6.100;2023-05-13T06:12:21;12.00;;;5.10;;
55641;SDS011;41509;53.108;6.100;2023-05-13T06:14:47;12.23;;;5.07;;
55641;SDS011;41509;53.108;6.100;2023-05-13T06:17:13;12.85;;;4.75;;
55641;SDS011;41509;53.108;6.100;2023-05-13T06:19:39;8.68;;;5.28;;
55641;SDS011;41509;53.108;6.100;2023-05-13T06:22:08;10.23;;;5.25;;
55641;SDS011;41509;53.108;6.100;2023-05-13T06:24:35;7.40;;;4.95;;
55641;SDS011;41509;53.108;6.100;2023-05-13T06:27:01;8.63;;;5.78;;
55641;SDS011;41509;53.108;6.100;2023-05-13T06:29:27;8.80;;;4.65;;
55641;SDS011;41509;53.108;6.100;2023-05-13T06:31:53;9.10;;;4.80;;
55641;SDS011;41509;53.108;6.100;2023-05-13T06:34:18;10.05;;;4.70;;
55641;SDS011;41509;53.108;6.100;2023-05-13T06:36:44;7.65;;;4.35;;
55641;SDS011;41509;53.108;6.100;2023-05-13T06:39:10;7.63;;;5.35;;
55641;SDS011;41509;53.108;6.100;2023-05-13T06:41:37;8.30;;;4.85;;
55641;SDS011;41509;53.108;6.100;2023-05-13T06:44:03;7.47;;;5.15;;
55641;SDS011;41509;53.108;6.100;2023-05-13T06:46:30;11.30;;;5.97;;
55641;SDS011;41509;53.108;6.100;2023-05-13T06:48:56;12.23;;;5.10;;
55641;SDS011;41509;53.108;6.100;2023-05-13T06:51:23;6.80;;;4.82;;
55641;SDS011;41509;53.108;6.100;2023-05-13T06:53:51;9.40;;;5.53;;
55641;SDS011;41509;53.108;6.100;2023-05-13T06:56:16;8.02;;;4.97;;
55641;SDS011;41509;53.108;6.100;2023-05-13T06:58:42;10.90;;;4.37;;
55641;SDS011;41509;53.108;6.100;2023-05-13T07:01:08;10.50;;;4.75;;
55641;SDS011;41509;53.108;6.100;2023-05-13T07:03:33;10.40;;;5.03;;
55641;SDS011;41509;53.108;6.100;2023-05-13T07:05:59;8.97;;;5.37;;
55641;SDS011;41509;53.108;6.100;2023-05-13T07:08:24;7.77;;;4.53;;
55641;SDS011;41509;53.108;6.100;2023-05-13T07:10:50;6.93;;;4.63;;
55641;SDS011;41509;53.108;6.100;2023-05-13T07:13:16;8.03;;;4.43;;
55641;SDS011;41509;53.108;6.100;2023-05-13T07:15:43;8.05;;;4.50;;
55641;SDS011;41509;53.108;6.100;2023-05-13T07:18:09;8.05;;;4.20;;
55641;SDS011;41509;53.108;6.100;2023-05-13T07:20:35;7.60;;;4.65;;
55641;SDS011;41509;53.108;6.100;2023-05-13T07:23:01;8.65;;;4.30;;
55641;SDS011;41509;53.108;6.100;2023-05-13T07:25:26;7.97;;;4.40;;
55641;SDS011;41509;53.108;6.100;2023-05-13T07:27:52;9.02;;;4.47;;
55641;SDS011;41509;53.108;6.100;2023-05-13T07:30:18;6.55;;;3.85;;
55641;SDS011;41509;53.108;6.100;2023-05-13T07:32:47;9.32;;;4.30;;
55641;SDS011;41509;53.108;6.100;2023-05-13T07:35:12;6.15;;;4.28;;
55641;SDS011;41509;53.108;6.100;2023-05-13T07:37:41;8.93;;;4.07;;
55641;SDS011;41509;53.108;6.100;2023-05-13T07:40:13;12.52;;;4.25;;
55641;SDS011;41509;53.108;6.100;2023-05-13T07:42:39;10.48;;;4.25;;
55641;SDS011;41509;53.108;6.100;2023-05-13T07:45:05;7.57;;;4.07;;
55641;SDS011;41509;53.108;6.100;2023-05-13T07:47:34;8.20;;;3.58;;
55641;SDS011;41509;53.108;6.100;2023-05-13T07:49:59;6.38;;;4.40;;
55641;SDS011;41509;53.108;6.100;2023-05-13T07:52:25;8.60;;;4.15;;
55641;SDS011;41509;53.108;6.100;2023-05-13T07:54:51;12.77;;;4.10;;
55641;SDS011;41509;53.108;6.100;2023-05-13T07:57:17;6.93;;;4.03;;
55641;SDS011;41509;53.108;6.100;2023-05-13T07:59:42;6.68;;;3.67;;
55641;SDS011;41509;53.108;6.100;2023-05-13T08:02:09;5.25;;;3.72;;
55641;SDS011;41509;53.108;6.100;2023-05-13T08:04:34;8.07;;;4.38;;
55641;SDS011;41509;53.108;6.100;2023-05-13T08:07:00;8.77;;;3.88;;
55641;SDS011;41509;53.108;6.100;2023-05-13T08:09:26;7.18;;;4.05;;
55641;SDS011;41509;53.108;6.100;2023-05-13T08:11:52;6.32;;;4.35;;
55641;SDS011;41509;53.108;6.100;2023-05-13T08:16:44;5.07;;;3.53;;
55641;SDS011;41509;53.108;6.100;2023-05-13T08:19:09;6.57;;;3.80;;
55641;SDS011;41509;53.108;6.100;2023-05-13T08:21:41;7.25;;;4.13;;
55641;SDS011;41509;53.108;6.100;2023-05-13T08:24:06;9.10;;;4.10;;
55641;SDS011;41509;53.108;6.100;2023-05-13T08:26:32;10.07;;;3.63;;
55641;SDS011;41509;53.108;6.100;2023-05-13T08:28:58;8.25;;;4.00;;
55641;SDS011;41509;53.108;6.100;2023-05-13T08:31:24;9.25;;;4.57;;
55641;SDS011;41509;53.108;6.100;2023-05-13T08:33:51;4.78;;;3.30;;
55641;SDS011;41509;53.108;6.100;2023-05-13T08:36:19;9.00;;;4.15;;
55641;SDS011;41509;53.108;6.100;2023-05-13T08:38:50;7.47;;;3.72;;
55641;SDS011;41509;53.108;6.100;2023-05-13T08:41:15;6.40;;;3.60;;
55641;SDS011;41509;53.108;6.100;2023-05-13T08:46:08;8.00;;;3.38;;
55641;SDS011;41509;53.108;6.100;2023-05-13T08:48:36;7.70;;;3.65;;
55641;SDS011;41509;53.108;6.100;2023-05-13T08:51:03;10.45;;;4.25;;
55641;SDS011;41509;53.108;6.100;2023-05-13T08:53:29;7.13;;;3.67;;
55641;SDS011;41509;53.108;6.100;2023-05-13T08:55:57;7.00;;;3.53;;
55641;SDS011;41509;53.108;6.100;2023-05-13T08:58:24;8.57;;;3.95;;
55641;SDS011;41509;53.108;6.100;2023-05-13T09:00:49;7.63;;;3.95;;
55641;SDS011;41509;53.108;6.100;2023-05-13T09:03:18;9.15;;;3.72;;
55641;SDS011;41509;53.108;6.100;2023-05-13T09:05:45;5.22;;;3.95;;
55641;SDS011;41509;53.108;6.100;2023-05-13T09:08:11;8.15;;;3.53;;
55641;SDS011;41509;53.108;6.100;2023-05-13T09:10:37;7.00;;;3.45;;
55641;SDS011;41509;53.108;6.100;2023-05-13T09:13:03;5.88;;;3.50;;
55641;SDS011;41509;53.108;6.100;2023-05-13T09:15:29;11.18;;;3.65;;
55641;SDS011;41509;53.108;6.100;2023-05-13T09:18:02;7.88;;;3.53;;
55641;SDS011;41509;53.108;6.100;2023-05-13T09:20:29;5.47;;;3.90;;
55641;SDS011;41509;53.108;6.100;2023-05-13T09:23:00;7.68;;;4.32;;
55641;SDS011;41509;53.108;6.100;2023-05-13T09:25:33;4.90;;;2.70;;
55641;SDS011;41509;53.108;6.100;2023-05-13T09:28:04;8.57;;;3.88;;
55641;SDS011;41509;53.108;6.100;2023-05-13T09:30:33;4.95;;;2.90;;
55641;SDS011;41509;53.108;6.100;2023-05-13T09:33:11;5.97;;;3.72;;
55641;SDS011;41509;53.108;6.100;2023-05-13T09:35:47;7.20;;;3.55;;
55641;SDS011;41509;53.108;6.100;2023-05-13T09:38:17;10.55;;;3.97;;
55641;SDS011;41509;53.108;6.100;2023-05-13T09:40:57;7.57;;;3.80;;
55641;SDS011;41509;53.108;6.100;2023-05-13T09:43:25;9.23;;;4.13;;
55641;SDS011;41509;53.108;6.100;2023-05-13T09:46:03;7.65;;;4.10;;
55641;SDS011;41509;53.108;6.100;2023-05-13T09:48:30;6.47;;;3.63;;
55641;SDS011;41509;53.108;6.100;2023-05-13T09:50:57;6.78;;;3.88;;
55641;SDS011;41509;53.108;6.100;2023-05-13T09:53:23;6.60;;;3.67;;
55641;SDS011;41509;53.108;6.100;2023-05-13T09:55:51;7.53;;;3.80;;
55641;SDS011;41509;53.108;6.100;2023-05-13T09:58:19;4.68;;;3.25;;
55641;SDS011;41509;53.108;6.100;2023-05-13T10:00:46;10.18;;;3.78;;
55641;SDS011;41509;53.108;6.100;2023-05-13T10:03:12;9.57;;;3.92;;
55641;SDS011;41509;53.108;6.100;2023-05-13T10:05:39;5.38;;;3.28;;
55641;SDS011;41509;53.108;6.100;2023-05-13T10:08:07;8.27;;;3.80;;
55641;SDS011;41509;53.108;6.100;2023-05-13T10:10:34;5.53;;;3.42;;
55641;SDS011;41509;53.108;6.100;2023-05-13T10:13:13;8.93;;;3.58;;
55641;SDS011;41509;53.108;6.100;2023-05-13T10:16:01;6.32;;;3.45;;
55641;SDS011;41509;53.108;6.100;2023-05-13T10:18:26;7.35;;;3.63;;
55641;SDS011;41509;53.108;6.100;2023-05-13T10:20:52;5.65;;;3.20;;
55641;SDS011;41509;53.108;6.100;2023-05-13T10:23:19;6.18;;;3.30;;
55641;SDS011;41509;53.108;6.100;2023-05-13T10:25:53;6.28;;;3.50;;
55641;SDS011;41509;53.108;6.100;2023-05-13T10:28:20;7.75;;;3.47;;
55641;SDS011;41509;53.108;6.100;2023-05-13T10:33:20;6.50;;;2.75;;
55641;SDS011;41509;53.108;6.100;2023-05-13T10:44:24;8.38;;;4.55;;
55641;SDS011;41509;53.108;6.100;2023-05-13T10:49:15;8.60;;;3.85;;
55641;SDS011;41509;53.108;6.100;2023-05-13T10:51:44;6.95;;;4.60;;
55641;SDS011;41509;53.108;6.100;2023-05-13T10:54:18;7.32;;;4.25;;
55641;SDS011;41509;53.108;6.100;2023-05-13T10:56:44;8.68;;;4.13;;
55641;SDS011;41509;53.108;6.100;2023-05-13T10:59:11;6.85;;;4.22;;
55641;SDS011;41509;53.108;6.100;2023-05-13T11:01:40;8.45;;;4.47;;
55641;SDS011;41509;53.108;6.100;2023-05-13T11:04:13;5.82;;;3.50;;
55641;SDS011;41509;53.108;6.100;2023-05-13T11:06:41;6.75;;;4.22;;
55641;SDS011;41509;53.108;6.100;2023-05-13T11:11:38;7.68;;;4.28;;
55641;SDS011;41509;53.108;6.100;2023-05-13T11:14:12;7.68;;;4.30;;
55641;SDS011;41509;53.108;6.100;2023-05-13T11:19:31;6.13;;;4.38;;
55641;SDS011;41509;53.108;6.100;2023-05-13T11:24:43;7.43;;;4.50;;
55641;SDS011;41509;53.108;6.100;2023-05-13T11:27:19;12.77;;;4.65;;
55641;SDS011;41509;53.108;6.100;2023-05-13T11:32:42;8.95;;;4.68;;
55641;SDS011;41509;53.108;6.100;2023-05-13T11:37:43;6.90;;;4.15;;
55641;SDS011;41509;53.108;6.100;2023-05-13T11:42:35;10.20;;;5.15;;
55641;SDS011;41509;53.108;6.100;2023-05-13T11:45:03;7.43;;;5.13;;
55641;SDS011;41509;53.108;6.100;2023-05-13T11:47:29;8.05;;;5.15;;
55641;SDS011;41509;53.108;6.100;2023-05-13T11:49:57;7.80;;;4.65;;
55641;SDS011;41509;53.108;6.100;2023-05-13T11:52:26;9.00;;;4.97;;
55641;SDS011;41509;53.108;6.100;2023-05-13T11:54:54;6.32;;;4.55;;
55641;SDS011;41509;53.108;6.100;2023-05-13T11:57:25;6.55;;;4.18;;
55641;SDS011;41509;53.108;6.100;2023-05-13T11:59:56;8.88;;;4.00;;
55641;SDS011;41509;53.108;6.100;2023-05-13T12:02:26;7.13;;;3.92;;
55641;SDS011;41509;53.108;6.100;2023-05-13T12:05:01;8.88;;;4.38;;
55641;SDS011;41509;53.108;6.100;2023-05-13T12:07:31;6.80;;;3.95;;
55641;SDS011;41509;53.108;6.100;2023-05-13T12:09:58;6.60;;;4.60;;
55641;SDS011;41509;53.108;6.100;2023-05-13T12:12:26;8.35;;;4.68;;
55641;SDS011;41509;53.108;6.100;2023-05-13T12:14:54;8.82;;;4.03;;
55641;SDS011;41509;53.108;6.100;2023-05-13T12:17:20;9.82;;;4.35;;
55641;SDS011;41509;53.108;6.100;2023-05-13T12:22:31;7.75;;;4.30;;
55641;SDS011;41509;53.108;6.100;2023-05-13T12:28:13;5.93;;;3.55;;
55641;SDS011;41509;53.108;6.100;2023-05-13T12:31:04;6.00;;;3.70;;
55641;SDS011;41509;53.108;6.100;2023-05-13T12:36:19;10.60;;;4.00;;
55641;SDS011;41509;53.108;6.100;2023-05-13T12:38:57;8.38;;;4.00;;
55641;SDS011;41509;53.108;6.100;2023-05-13T12:41:40;7.88;;;4.40;;
55641;SDS011;41509;53.108;6.100;2023-05-13T12:44:09;6.55;;;3.40;;
55641;SDS011;41509;53.108;6.100;2023-05-13T12:46:38;7.32;;;3.70;;
55641;SDS011;41509;53.108;6.100;2023-05-13T12:49:24;7.90;;;4.68;;
55641;SDS011;41509;53.108;6.100;2023-05-13T12:54:16;10.10;;;4.43;;
55641;SDS011;41509;53.108;6.100;2023-05-13T12:56:42;7.70;;;4.22;;
55641;SDS011;41509;53.108;6.100;2023-05-13T13:01:34;6.85;;;4.32;;
55641;SDS011;41509;53.108;6.100;2023-05-13T13:04:02;8.57;;;4.13;;
55641;SDS011;41509;53.108;6.100;2023-05-13T13:08:53;5.03;;;3.85;;
55641;SDS011;41509;53.108;6.100;2023-05-13T13:13:48;8.07;;;4.22;;
55641;SDS011;41509;53.108;6.100;2023-05-13T13:16:17;5.57;;;3.30;;
55641;SDS011;41509;53.108;6.100;2023-05-13T13:21:08;8.23;;;3.65;;
55641;SDS011;41509;53.108;6.100;2023-05-13T13:23:34;8.70;;;3.30;;
55641;SDS011;41509;53.108;6.100;2023-05-13T13:28:26;4.85;;;3.22;;
55641;SDS011;41509;53.108;6.100;2023-05-13T13:33:17;5.90;;;3.40;;
55641;SDS011;41509;53.108;6.100;2023-05-13T13:38:09;10.60;;;4.85;;
55641;SDS011;41509;53.108;6.100;2023-05-13T13:43:01;9.02;;;4.10;;
55641;SDS011;41509;53.108;6.100;2023-05-13T13:45:28;8.90;;;3.95;;
55641;SDS011;41509;53.108;6.100;2023-05-13T13:50:19;7.50;;;3.97;;
55641;SDS011;41509;53.108;6.100;2023-05-13T13:55:10;7.13;;;3.38;;
55641;SDS011;41509;53.108;6.100;2023-05-13T14:00:02;8.10;;;3.35;;
55641;SDS011;41509;53.108;6.100;2023-05-13T14:02:29;7.32;;;3.97;;
55641;SDS011;41509;53.108;6.100;2023-05-13T14:07:20;6.05;;;3.58;;
55641;SDS011;41509;53.108;6.100;2023-05-13T14:12:11;8.88;;;3.15;;
55641;SDS011;41509;53.108;6.100;2023-05-13T14:17:02;7.28;;;2.80;;
55641;SDS011;41509;53.108;6.100;2023-05-13T14:21:53;7.60;;;3.85;;
55641;SDS011;41509;53.108;6.100;2023-05-13T14:26:45;6.03;;;3.38;;
55641;SDS011;41509;53.108;6.100;2023-05-13T14:29:13;5.80;;;2.95;;
55641;SDS011;41509;53.108;6.100;2023-05-13T14:34:04;6.97;;;2.90;;
55641;SDS011;41509;53.108;6.100;2023-05-13T14:36:30;4.57;;;3.13;;
55641;SDS011;41509;53.108;6.100;2023-05-13T14:38:59;4.07;;;2.80;;
55641;SDS011;41509;53.108;6.100;2023-05-13T14:41:27;6.25;;;2.67;;
55641;SDS011;41509;53.108;6.100;2023-05-13T14:43:53;6.43;;;2.17;;
55641;SDS011;41509;53.108;6.100;2023-05-13T14:48:44;5.18;;;2.70;;
55641;SDS011;41509;53.108;6.100;2023-05-13T14:53:37;5.32;;;3.03;;
55641;SDS011;41509;53.108;6.100;2023-05-13T14:56:06;6.05;;;2.75;;
55641;SDS011;41509;53.108;6.100;2023-05-13T14:58:32;3.75;;;2.50;;
55641;SDS011;41509;53.108;6.100;2023-05-13T15:00:58;5.10;;;2.95;;
55641;SDS011;41509;53.108;6.100;2023-05-13T15:03:26;7.25;;;2.92;;
55641;SDS011;41509;53.108;6.100;2023-05-13T15:05:52;4.57;;;2.35;;
55641;SDS011;41509;53.108;6.100;2023-05-13T15:08:20;5.97;;;2.70;;
55641;SDS011;41509;53.108;6.100;2023-05-13T15:10:46;4.65;;;2.70;;
55641;SDS011;41509;53.108;6.100;2023-05-13T15:13:11;5.63;;;2.70;;
55641;SDS011;41509;53.108;6.100;2023-05-13T15:15:37;4.63;;;2.70;;
55641;SDS011;41509;53.108;6.100;2023-05-13T15:20:29;5.35;;;2.85;;
55641;SDS011;41509;53.108;6.100;2023-05-13T15:22:58;6.32;;;3.25;;
55641;SDS011;41509;53.108;6.100;2023-05-13T15:25:23;6.05;;;3.03;;
55641;SDS011;41509;53.108;6.100;2023-05-13T15:27:52;7.05;;;2.63;;
55641;SDS011;41509;53.108;6.100;2023-05-13T15:30:18;7.28;;;3.13;;
55641;SDS011;41509;53.108;6.100;2023-05-13T15:32:44;6.90;;;2.88;;
55641;SDS011;41509;53.108;6.100;2023-05-13T15:37:35;3.72;;;2.40;;
55641;SDS011;41509;53.108;6.100;2023-05-13T15:42:27;6.75;;;2.80;;
55641;SDS011;41509;53.108;6.100;2023-05-13T15:44:52;6.65;;;3.13;;
55641;SDS011;41509;53.108;6.100;2023-05-13T15:49:44;7.45;;;2.92;;
55641;SDS011;41509;53.108;6.100;2023-05-13T15:54:35;7.82;;;2.83;;
55641;SDS011;41509;53.108;6.100;2023-05-13T15:59:26;6.40;;;3.10;;
55641;SDS011;41509;53.108;6.100;2023-05-13T16:04:17;5.72;;;2.83;;
55641;SDS011;41509;53.108;6.100;2023-05-13T16:09:08;5.70;;;3.15;;
55641;SDS011;41509;53.108;6.100;2023-05-13T16:14:00;5.05;;;3.65;;
55641;SDS011;41509;53.108;6.100;2023-05-13T16:18:51;6.47;;;3.97;;
55641;SDS011;41509;53.108;6.100;2023-05-13T16:23:42;4.32;;;3.00;;
55641;SDS011;41509;53.108;6.100;2023-05-13T16:28:33;6.25;;;3.22;;
55641;SDS011;41509;53.108;6.100;2023-05-13T16:31:02;6.57;;;3.70;;
55641;SDS011;41509;53.108;6.100;2023-05-13T16:35:54;10.00;;;4.10;;
55641;SDS011;41509;53.108;6.100;2023-05-13T16:40:45;5.45;;;3.85;;
55641;SDS011;41509;53.108;6.100;2023-05-13T16:45:36;8.52;;;3.95;;
55641;SDS011;41509;53.108;6.100;2023-05-13T16:48:03;9.05;;;3.70;;
55641;SDS011;41509;53.108;6.100;2023-05-13T16:50:29;7.72;;;4.15;;
55641;SDS011;41509;53.108;6.100;2023-05-13T16:55:21;7.25;;;4.10;;
55641;SDS011;41509;53.108;6.100;2023-05-13T17:00:12;7.65;;;3.97;;
55641;SDS011;41509;53.108;6.100;2023-05-13T17:02:41;7.45;;;4.50;;
55641;SDS011;41509;53.108;6.100;2023-05-13T17:07:32;7.60;;;4.32;;
55641;SDS011;41509;53.108;6.100;2023-05-13T17:10:01;12.30;;;4.80;;
55641;SDS011;41509;53.108;6.100;2023-05-13T17:14:52;9.23;;;4.53;;